Pope Air Force Base
KPOB : now visible

Airfield :











YOU CAN JOIN US ON...

 
LOGIN :

Register | Disclaimer

   EN    FR    IT 

 









Legend :    VFR   Marginal VFR   IFR   Intensive IFR   Very Intensive IFR
Visi :
Ceiling :
>= 8 km
>= 3000ft
5 to 8 km
1000 to 3000 ft
1500m to 5 km
500 to 1000 ft
800 to 1500m
200 to 500 ft
< 800m
< 200 ft
Symbols :   Thunderstorms  Fog  Heavy snow  Heavy precipitations  Wind > 20 kt






- Airport Elevation : 217 ft


KPOB - Pope Air Force Base

CURRENT METAR :
  • 060456Z AUTO 00000KT 10SM CLR 00/M01 A3022 RMK AO2 SLP237 T00011015 401571020 $

EXPIRED METARs :
  • 060356Z AUTO 00000KT 10SM CLR 01/M01 A3021 RMK AO2 SLP234 T00071014 $
  • 060313Z AUTO 00000KT 10SM CLR 01/M01 A3021 RMK AO2 PRESRR SLP234 $
  • 060256Z AUTO 00000KT 10SM CLR 02/M01 A3019 RMK AO2 SLP227 T00151011 52011 $

TAF TAF KPOB
Valid from the 06 at 02:00 until the 07 at 08:00 UTC


060200Z 0602/0708 VRB06KT 9999 SKC QNH3013INS
BECMG 0615/0616 20009KT 9999 BKN050 OVC150 QNH3014INS
BECMG 0621/0622 22006KT 9000 -RA BKN035 OVC100 QNH3014INS
BECMG 0700/0701 35006KT 9999 NSW FEW020 SCT040 QNH3018INS TX14/0619Z TN00/0611Z



MET'MAP, your aeronautical weather chart ! - Copyright ORBIFLY December 2007 - Disclaimer

ORBIFLY MET'MAP TEAM :

Programming & Development : Alexandra Zaïnal
Concept & original design : Baudouin d'Aumeries
Assistance for programming : Marc-Olivier Méhu
Technical & hardware support : Manuel Goepfert

Contact : metmap@orbifly.com




SOURCES & CREDITS :

   NOAA       Earth
Advisory